createdAt,value
2023-04-17T00:01:10.059Z,13.20
2023-04-17T00:03:37.842Z,13.30
2023-04-17T00:06:05.328Z,13.20
2023-04-17T00:08:33.763Z,13.30
2023-04-17T00:11:07.584Z,13.30
2023-04-17T00:13:35.531Z,13.30
2023-04-17T00:16:02.565Z,13.30
2023-04-17T00:18:29.485Z,13.30
2023-04-17T00:20:56.819Z,13.30
2023-04-17T00:23:23.740Z,13.30
2023-04-17T00:25:50.479Z,13.20
2023-04-17T00:28:17.165Z,13.30
2023-04-17T00:30:43.922Z,13.20
2023-04-17T00:33:10.636Z,13.20
2023-04-17T00:35:37.342Z,13.20
2023-04-17T00:38:04.241Z,13.20
2023-04-17T00:40:31.277Z,13.20
2023-04-17T00:43:04.390Z,13.20
2023-04-17T00:45:31.329Z,13.20
2023-04-17T00:47:59.128Z,13.20
2023-04-17T00:50:30.125Z,13.20
2023-04-17T00:52:57.187Z,13.20
2023-04-17T00:55:24.460Z,13.20
2023-04-17T00:57:51.201Z,13.20
2023-04-17T01:00:18.540Z,13.20
2023-04-17T01:02:46.693Z,13.10
2023-04-17T01:05:13.629Z,13.10
2023-04-17T01:07:41.249Z,13.10
2023-04-17T01:10:08.428Z,13.20
2023-04-17T01:12:35.342Z,13.10
2023-04-17T01:15:02.345Z,13.10
2023-04-17T01:17:29.350Z,13.10
2023-04-17T01:19:56.645Z,13.10
2023-04-17T01:22:23.875Z,13.10
2023-04-17T01:24:50.559Z,13.00
2023-04-17T01:27:17.275Z,13.00
2023-04-17T01:29:44.009Z,13.00
2023-04-17T01:32:10.791Z,13.00
2023-04-17T01:34:37.763Z,13.00
2023-04-17T01:37:04.545Z,13.00
2023-04-17T01:39:31.420Z,13.00
2023-04-17T01:41:58.125Z,13.00
2023-04-17T01:44:25.037Z,13.00
2023-04-17T01:46:51.800Z,13.00
2023-04-17T01:49:19.092Z,13.00
2023-04-17T01:51:45.806Z,13.00
2023-04-17T01:54:15.238Z,12.90
2023-04-17T01:56:42.485Z,12.90
2023-04-17T01:59:09.950Z,12.90
2023-04-17T02:01:37.424Z,12.90
2023-04-17T02:04:04.438Z,12.80
2023-04-17T02:06:32.545Z,12.80
2023-04-17T02:08:59.965Z,12.80
2023-04-17T02:11:26.717Z,12.80
2023-04-17T02:13:53.705Z,12.80
2023-04-17T02:16:21.870Z,12.80
2023-04-17T02:18:52.317Z,12.80
2023-04-17T02:21:19.070Z,12.80
2023-04-17T02:23:45.770Z,12.80
2023-04-17T02:26:12.575Z,12.80
2023-04-17T02:28:39.446Z,12.70
2023-04-17T02:31:08.304Z,12.80
2023-04-17T02:33:36.632Z,12.70
2023-04-17T02:36:04.367Z,12.70
2023-04-17T02:38:31.245Z,12.70
2023-04-17T02:40:58.780Z,12.60
2023-04-17T02:43:25.676Z,12.60
2023-04-17T02:45:52.499Z,12.50
2023-04-17T02:48:19.177Z,12.40
2023-04-17T02:50:45.911Z,12.40
2023-04-17T02:53:12.642Z,12.40
2023-04-17T02:55:39.310Z,12.30
2023-04-17T02:58:06.118Z,12.30
2023-04-17T03:00:32.961Z,12.30
2023-04-17T03:02:59.921Z,12.30
2023-04-17T03:05:30.195Z,12.30
2023-04-17T03:08:00.141Z,12.30
2023-04-17T03:10:26.900Z,12.20
2023-04-17T03:12:53.672Z,12.20
2023-04-17T03:15:20.502Z,12.20
2023-04-17T03:17:47.528Z,12.20
2023-04-17T03:20:16.079Z,12.20
2023-04-17T03:22:43.249Z,12.20
2023-04-17T03:25:10.326Z,12.20
2023-04-17T03:27:38.573Z,12.20
2023-04-17T03:30:06.236Z,12.10
2023-04-17T03:32:32.930Z,12.10
2023-04-17T03:35:00.210Z,12.10
2023-04-17T03:37:27.299Z,12.10
2023-04-17T03:39:55.687Z,12.10
2023-04-17T03:42:22.454Z,12.00
2023-04-17T03:44:49.176Z,11.90
2023-04-17T03:47:16.036Z,11.90
2023-04-17T03:49:43.225Z,11.90
2023-04-17T03:52:10.360Z,11.80
2023-04-17T03:54:37.060Z,11.80
2023-04-17T03:57:04.056Z,11.70
2023-04-17T03:59:31.453Z,11.70
2023-04-17T04:01:58.428Z,11.80
2023-04-17T04:04:25.817Z,11.80
2023-04-17T04:06:54.553Z,11.70
2023-04-17T04:09:21.591Z,11.70
2023-04-17T04:11:48.449Z,11.60
2023-04-17T04:14:15.282Z,11.60
2023-04-17T04:16:42.304Z,11.70
2023-04-17T04:19:09.256Z,11.60
2023-04-17T04:21:36.125Z,11.70
2023-04-17T04:24:03.204Z,11.60
2023-04-17T04:26:29.974Z,11.60
2023-04-17T04:28:56.855Z,11.60
2023-04-17T04:31:25.620Z,11.50
2023-04-17T04:33:55.379Z,11.50
2023-04-17T04:36:23.093Z,11.40
2023-04-17T04:38:50.408Z,11.50
2023-04-17T04:41:17.684Z,11.50
2023-04-17T04:43:44.525Z,11.50
2023-04-17T04:46:11.707Z,11.50
2023-04-17T04:48:40.005Z,11.40
2023-04-17T04:51:08.790Z,11.40
2023-04-17T04:53:35.910Z,11.40
2023-04-17T04:56:02.999Z,11.40
2023-04-17T04:58:29.878Z,11.40
2023-04-17T05:00:56.592Z,11.40
2023-04-17T05:03:23.553Z,11.40
2023-04-17T05:05:50.559Z,11.40
2023-04-17T05:08:17.664Z,11.40
2023-04-17T05:10:46.122Z,11.40
2023-04-17T05:13:12.793Z,11.30
2023-04-17T05:15:41.440Z,11.40
2023-04-17T05:18:08.176Z,11.30
2023-04-17T05:20:34.906Z,11.40
2023-04-17T05:23:01.741Z,11.40
2023-04-17T05:25:28.688Z,11.40
2023-04-17T05:27:55.338Z,11.40
2023-04-17T05:30:22.025Z,11.40
2023-04-17T05:32:49.322Z,11.40
2023-04-17T05:35:16.335Z,11.40
2023-04-17T05:37:43.007Z,11.40
2023-04-17T05:40:09.989Z,11.40
2023-04-17T05:42:36.987Z,11.40
2023-04-17T05:45:04.853Z,11.40
2023-04-17T05:47:31.570Z,11.40
2023-04-17T05:49:59.811Z,11.40
2023-04-17T05:52:26.492Z,11.50
2023-04-17T05:54:53.169Z,11.50
2023-04-17T05:57:19.974Z,11.50
2023-04-17T05:59:47.079Z,11.60
2023-04-17T06:02:13.793Z,11.60
2023-04-17T06:04:41.477Z,11.60
2023-04-17T06:07:09.799Z,11.70
2023-04-17T06:09:36.930Z,11.70
2023-04-17T06:12:06.897Z,11.70
2023-04-17T06:14:33.584Z,11.80
2023-04-17T06:17:00.388Z,11.90
2023-04-17T06:19:27.108Z,12.20
2023-04-17T06:21:53.869Z,12.30
2023-04-17T06:24:21.373Z,12.50
2023-04-17T06:26:48.092Z,12.90
2023-04-17T06:29:15.842Z,13.20
2023-04-17T06:31:42.668Z,13.60
2023-04-17T06:34:09.342Z,14.00
2023-04-17T06:36:36.299Z,14.30
2023-04-17T06:39:03.079Z,14.60
2023-04-17T06:41:30.620Z,14.80
2023-04-17T06:43:57.472Z,14.90
2023-04-17T06:46:24.208Z,14.90
2023-04-17T06:48:52.291Z,14.90
2023-04-17T06:51:21.046Z,14.70
2023-04-17T06:53:50.941Z,14.40
2023-04-17T06:56:18.264Z,14.10
2023-04-17T06:58:47.860Z,13.80
2023-04-17T07:01:14.597Z,13.60
2023-04-17T07:03:42.167Z,13.30
2023-04-17T07:06:09.801Z,13.10
2023-04-17T07:08:36.857Z,12.90
2023-04-17T07:11:03.552Z,12.90
2023-04-17T07:13:32.965Z,12.70
2023-04-17T07:16:01.231Z,12.60
2023-04-17T07:18:29.571Z,12.70
2023-04-17T07:20:56.758Z,13.00
2023-04-17T07:23:23.826Z,13.10
2023-04-17T07:25:50.570Z,13.40
2023-04-17T07:28:17.772Z,13.80
2023-04-17T07:30:44.545Z,13.80
2023-04-17T07:33:11.508Z,13.90
2023-04-17T07:35:38.288Z,14.10
2023-04-17T07:38:05.414Z,14.40
2023-04-17T07:40:33.273Z,14.30
2023-04-17T07:43:00.033Z,14.30
2023-04-17T07:45:28.453Z,14.20
2023-04-17T07:47:55.308Z,14.10
2023-04-17T07:50:22.275Z,14.00
2023-04-17T07:52:49.020Z,14.10
2023-04-17T07:55:16.874Z,14.00
2023-04-17T07:57:46.807Z,13.80
2023-04-17T08:00:14.629Z,13.80
2023-04-17T08:02:44.577Z,13.80
2023-04-17T08:05:11.689Z,13.80
2023-04-17T08:07:38.583Z,13.90
2023-04-17T08:10:06.090Z,14.10
2023-04-17T08:12:33.100Z,14.20
2023-04-17T08:14:59.839Z,14.30
2023-04-17T08:17:30.030Z,14.30
2023-04-17T08:20:02.318Z,14.30
2023-04-17T08:22:29.239Z,14.30
2023-04-17T08:24:59.624Z,14.40
2023-04-17T08:27:26.336Z,14.50
2023-04-17T08:29:56.783Z,14.50
2023-04-17T08:32:23.591Z,14.30
2023-04-17T08:34:50.347Z,14.40
2023-04-17T08:37:17.176Z,14.50
2023-04-17T08:39:43.868Z,14.70
2023-04-17T08:42:15.389Z,14.80
2023-04-17T08:44:44.516Z,14.90
2023-04-17T08:47:12.591Z,14.80
2023-04-17T08:49:43.254Z,14.80
2023-04-17T08:52:10.846Z,14.70
2023-04-17T08:54:38.755Z,15.00
2023-04-17T08:57:05.749Z,15.40
2023-04-17T08:59:32.638Z,15.80
2023-04-17T09:02:00.948Z,15.70
2023-04-17T09:04:44.124Z,15.70
2023-04-17T09:07:12.228Z,15.70
2023-04-17T09:09:52.734Z,15.60
2023-04-17T09:12:20.562Z,15.70
2023-04-17T09:14:47.292Z,15.80
2023-04-17T09:17:17.666Z,16.10
2023-04-17T09:20:04.501Z,15.70
2023-04-17T09:22:31.895Z,15.60
2023-04-17T09:24:59.088Z,15.40
2023-04-17T09:27:27.141Z,15.40
2023-04-17T09:30:07.203Z,15.60
2023-04-17T09:32:34.218Z,15.80
2023-04-17T09:35:02.457Z,16.00
2023-04-17T09:37:50.506Z,16.00
2023-04-17T09:40:18.707Z,15.90
2023-04-17T09:42:59.363Z,16.00
2023-04-17T09:45:28.178Z,15.90
2023-04-17T09:47:56.044Z,16.10
2023-04-17T09:50:24.850Z,16.30
2023-04-17T09:52:53.174Z,16.40
2023-04-17T09:55:23.996Z,16.70
2023-04-17T09:57:53.609Z,16.80
2023-04-17T10:00:21.005Z,16.80
2023-04-17T10:02:49.954Z,16.80
2023-04-17T10:05:16.829Z,16.80
2023-04-17T10:07:43.625Z,16.50
2023-04-17T10:10:11.063Z,16.80
2023-04-17T10:12:38.900Z,16.90
2023-04-17T10:15:08.671Z,16.70
2023-04-17T10:17:35.684Z,16.60
2023-04-17T10:20:32.937Z,16.50
2023-04-17T10:23:01.360Z,16.60
2023-04-17T10:25:28.364Z,16.80
2023-04-17T10:27:57.445Z,17.00
2023-04-17T10:30:26.360Z,17.00
2023-04-17T10:33:20.174Z,17.20
2023-04-17T10:35:46.860Z,17.00
2023-04-17T10:38:13.760Z,17.00
2023-04-17T10:40:43.383Z,17.00
2023-04-17T10:43:23.559Z,16.80
2023-04-17T10:46:08.866Z,16.80
2023-04-17T10:48:42.017Z,16.80
2023-04-17T10:51:23.731Z,16.80
2023-04-17T10:54:02.983Z,16.90
2023-04-17T10:56:30.724Z,16.60
2023-04-17T10:58:59.552Z,16.60
2023-04-17T11:01:49.264Z,16.70
2023-04-17T11:04:23.743Z,16.90
2023-04-17T11:06:52.632Z,17.00
2023-04-17T11:09:20.803Z,16.90
2023-04-17T11:11:47.554Z,17.10
2023-04-17T11:14:16.456Z,17.30
2023-04-17T11:16:44.278Z,17.10
2023-04-17T11:19:13.142Z,17.00
2023-04-17T11:21:43.381Z,16.80
2023-04-17T11:24:10.295Z,17.00
2023-04-17T11:26:43.817Z,16.90
2023-04-17T11:29:17.042Z,17.00
2023-04-17T11:31:47.058Z,16.90
2023-04-17T11:34:18.462Z,16.90
2023-04-17T11:36:56.253Z,16.80
2023-04-17T11:39:24.215Z,17.00
2023-04-17T11:41:51.681Z,17.00
2023-04-17T11:44:20.022Z,17.00
2023-04-17T11:46:57.015Z,16.80
2023-04-17T11:49:27.697Z,17.00
2023-04-17T11:51:56.664Z,17.10
2023-04-17T11:54:30.702Z,17.00
2023-04-17T11:57:13.099Z,17.00
2023-04-17T11:59:42.114Z,16.80
2023-04-17T12:02:09.241Z,16.80
2023-04-17T12:04:36.748Z,16.80
2023-04-17T12:07:04.474Z,16.90
2023-04-17T12:09:31.938Z,16.80
2023-04-17T12:11:59.667Z,16.70
2023-04-17T12:14:26.668Z,16.70
2023-04-17T12:16:53.752Z,16.60
2023-04-17T12:19:20.464Z,16.80
2023-04-17T12:21:52.333Z,16.60
2023-04-17T12:24:19.751Z,16.50
2023-04-17T12:26:47.531Z,16.50
2023-04-17T12:29:15.573Z,16.70
2023-04-17T12:31:42.492Z,16.60
2023-04-17T12:34:09.263Z,16.60
2023-04-17T12:36:36.186Z,16.60
2023-04-17T12:39:03.811Z,16.50
2023-04-17T12:41:31.817Z,16.60
2023-04-17T12:44:01.839Z,16.80
2023-04-17T12:46:28.778Z,16.70
2023-04-17T12:48:58.467Z,16.70
2023-04-17T12:51:28.109Z,16.50
2023-04-17T12:53:55.558Z,16.50
2023-04-17T12:56:22.448Z,16.40
2023-04-17T12:58:49.374Z,16.40
2023-04-17T13:01:16.275Z,16.60
2023-04-17T13:03:43.896Z,16.60
2023-04-17T13:06:12.851Z,16.60
2023-04-17T13:08:40.497Z,16.60
2023-04-17T13:11:07.383Z,16.50
2023-04-17T13:13:34.085Z,16.40
2023-04-17T13:16:01.074Z,16.50
2023-04-17T13:18:27.854Z,16.60
2023-04-17T13:20:54.568Z,16.50
2023-04-17T13:23:21.268Z,16.40
2023-04-17T13:25:48.499Z,16.50
2023-04-17T13:28:15.432Z,16.40
2023-04-17T13:30:42.222Z,16.40
2023-04-17T13:33:08.907Z,16.40
2023-04-17T13:35:35.678Z,16.30
2023-04-17T13:38:03.003Z,16.50
2023-04-17T13:40:30.431Z,16.50
2023-04-17T13:42:57.533Z,16.40
2023-04-17T13:45:24.689Z,16.50
2023-04-17T13:47:51.489Z,16.40
2023-04-17T13:50:18.215Z,16.40
2023-04-17T13:52:44.891Z,16.30
2023-04-17T13:55:14.575Z,16.30
2023-04-17T13:57:41.453Z,16.30
2023-04-17T14:00:10.570Z,16.50
2023-04-17T14:02:37.482Z,16.60
2023-04-17T14:05:05.144Z,16.50
2023-04-17T14:07:31.881Z,16.40
2023-04-17T14:09:58.575Z,16.10
2023-04-17T14:12:25.415Z,16.20
2023-04-17T14:14:52.069Z,16.30
2023-04-17T14:17:18.736Z,16.30
2023-04-17T14:19:45.415Z,16.10
2023-04-17T14:22:12.057Z,16.10
2023-04-17T14:24:38.671Z,16.20
2023-04-17T14:27:05.297Z,16.00
2023-04-17T14:29:32.146Z,15.90
2023-04-17T14:31:59.336Z,16.00
2023-04-17T14:34:26.068Z,16.10
2023-04-17T14:36:53.063Z,16.20
2023-04-17T14:39:19.923Z,16.10
2023-04-17T14:41:46.784Z,16.00
2023-04-17T14:44:13.728Z,16.10
2023-04-17T14:46:40.643Z,16.20
2023-04-17T14:49:07.840Z,16.20
2023-04-17T14:51:34.519Z,16.10
2023-04-17T14:54:01.352Z,16.20
2023-04-17T14:56:28.112Z,16.20
2023-04-17T14:58:55.048Z,16.10
2023-04-17T15:01:21.809Z,16.10
2023-04-17T15:03:49.179Z,16.00
2023-04-17T15:06:16.628Z,16.10
2023-04-17T15:08:43.958Z,16.10
2023-04-17T15:11:10.641Z,16.10
2023-04-17T15:13:39.579Z,16.10
2023-04-17T15:16:06.655Z,16.10
2023-04-17T15:18:34.652Z,16.10
2023-04-17T15:21:01.428Z,16.10
2023-04-17T15:23:29.640Z,16.10
2023-04-17T15:25:57.942Z,16.10
2023-04-17T15:28:25.283Z,16.10
2023-04-17T15:30:52.015Z,16.00
2023-04-17T15:33:19.006Z,15.90
2023-04-17T15:35:45.836Z,15.80
2023-04-17T15:38:12.516Z,15.80
2023-04-17T15:40:39.211Z,15.80
2023-04-17T15:43:06.172Z,15.80
2023-04-17T15:45:32.888Z,15.80
2023-04-17T15:48:01.014Z,15.80
2023-04-17T15:50:27.969Z,15.90
2023-04-17T15:52:55.237Z,15.60
2023-04-17T15:55:21.990Z,15.50
2023-04-17T15:57:48.801Z,15.50
2023-04-17T16:00:16.016Z,15.60
2023-04-17T16:02:49.075Z,15.50
2023-04-17T16:05:16.472Z,15.40
2023-04-17T16:07:43.386Z,15.50
2023-04-17T16:10:13.890Z,15.30
2023-04-17T16:12:44.952Z,15.30
2023-04-17T16:15:16.352Z,15.20
2023-04-17T16:17:43.531Z,15.10
2023-04-17T16:20:13.641Z,15.00
2023-04-17T16:22:40.849Z,15.00
2023-04-17T16:25:08.065Z,15.00
2023-04-17T16:27:34.836Z,14.90
2023-04-17T16:30:02.931Z,15.00
2023-04-17T16:32:31.644Z,14.90
2023-04-17T16:34:59.122Z,14.80
2023-04-17T16:37:26.140Z,14.80
2023-04-17T16:39:52.848Z,14.70
2023-04-17T16:42:19.549Z,14.50
2023-04-17T16:44:46.301Z,14.40
2023-04-17T16:47:14.483Z,14.40
2023-04-17T16:49:42.133Z,14.40
2023-04-17T16:52:08.864Z,14.40
2023-04-17T16:54:36.256Z,14.30
2023-04-17T16:57:03.432Z,14.30
2023-04-17T16:59:30.210Z,14.20
2023-04-17T17:01:57.908Z,14.20
2023-04-17T17:04:25.749Z,14.20
2023-04-17T17:06:52.491Z,14.10
2023-04-17T17:09:20.489Z,14.00
2023-04-17T17:11:47.409Z,13.90
2023-04-17T17:14:16.075Z,13.80
2023-04-17T17:16:42.897Z,13.80
2023-04-17T17:19:09.700Z,13.70
2023-04-17T17:21:36.437Z,13.70
2023-04-17T17:24:03.261Z,13.50
2023-04-17T17:26:29.956Z,13.40
2023-04-17T17:28:56.867Z,13.30
2023-04-17T17:31:23.657Z,13.30
2023-04-17T17:33:52.922Z,13.40
2023-04-17T17:36:21.517Z,13.30
2023-04-17T17:38:55.446Z,13.30
2023-04-17T17:41:23.477Z,13.20
2023-04-17T17:43:50.314Z,13.10
2023-04-17T17:46:17.103Z,13.00
2023-04-17T17:48:43.906Z,12.80
2023-04-17T17:51:10.727Z,12.80
2023-04-17T17:53:37.490Z,12.80
2023-04-17T17:56:04.510Z,12.70
2023-04-17T17:58:31.217Z,12.70
2023-04-17T18:00:57.904Z,12.70
2023-04-17T18:03:25.171Z,12.50
2023-04-17T18:05:52.845Z,12.50
2023-04-17T18:08:19.580Z,12.40
2023-04-17T18:10:46.280Z,12.30
2023-04-17T18:13:13.214Z,12.20
2023-04-17T18:15:39.954Z,12.20
2023-04-17T18:18:06.723Z,12.10
2023-04-17T18:20:37.940Z,12.10
2023-04-17T18:23:04.677Z,12.00
2023-04-17T18:25:31.471Z,11.90
2023-04-17T18:27:58.134Z,11.70
2023-04-17T18:30:25.244Z,11.60
2023-04-17T18:32:52.057Z,11.50
2023-04-17T18:35:19.109Z,11.40
2023-04-17T18:37:45.770Z,11.40
2023-04-17T18:40:13.074Z,11.40
2023-04-17T18:42:40.522Z,11.30
2023-04-17T18:45:07.654Z,11.30
2023-04-17T18:47:34.417Z,11.20
2023-04-17T18:50:01.243Z,11.20
2023-04-17T18:52:28.021Z,11.10
2023-04-17T18:54:54.762Z,11.10
2023-04-17T18:57:21.901Z,11.10
2023-04-17T18:59:48.567Z,11.10
2023-04-17T19:02:15.388Z,11.10
2023-04-17T19:04:42.006Z,11.00
2023-04-17T19:07:08.678Z,11.00
2023-04-17T19:09:36.101Z,11.00
2023-04-17T19:12:03.280Z,11.10
2023-04-17T19:14:32.578Z,10.90
2023-04-17T19:16:59.371Z,10.90
2023-04-17T19:19:26.114Z,10.90
2023-04-17T19:21:52.807Z,10.90
2023-04-17T19:24:19.563Z,10.80
2023-04-17T19:26:46.330Z,10.70
2023-04-17T19:29:13.506Z,10.70
2023-04-17T19:31:40.466Z,10.70
2023-04-17T19:34:08.480Z,10.90
2023-04-17T19:36:35.889Z,10.80
2023-04-17T19:39:03.673Z,10.90
2023-04-17T19:41:31.579Z,10.90
2023-04-17T19:43:58.234Z,10.80
2023-04-17T19:46:25.724Z,10.90
2023-04-17T19:48:52.758Z,10.90
2023-04-17T19:51:19.550Z,10.90
2023-04-17T19:53:46.945Z,10.80
2023-04-17T19:56:13.613Z,10.70
2023-04-17T19:58:40.562Z,10.60
2023-04-17T20:01:07.659Z,10.60
2023-04-17T20:03:35.431Z,10.70
2023-04-17T20:06:03.392Z,10.60
2023-04-17T20:08:33.459Z,10.60
2023-04-17T20:11:00.310Z,10.50
2023-04-17T20:13:28.271Z,10.60
2023-04-17T20:15:55.070Z,10.50
2023-04-17T20:18:21.771Z,10.50
2023-04-17T20:20:48.446Z,10.50
2023-04-17T20:23:15.897Z,10.40
2023-04-17T20:25:42.837Z,10.40
2023-04-17T20:28:09.652Z,10.50
2023-04-17T20:30:36.406Z,10.50
2023-04-17T20:33:03.227Z,10.50
2023-04-17T20:35:30.044Z,10.40
2023-04-17T20:37:57.205Z,10.40
2023-04-17T20:40:24.114Z,10.30
2023-04-17T20:42:50.968Z,10.40
2023-04-17T20:45:17.624Z,10.30
2023-04-17T20:47:56.029Z,10.30
2023-04-17T20:50:24.618Z,10.30
2023-04-17T20:52:51.275Z,10.30
2023-04-17T20:55:19.813Z,10.30
2023-04-17T20:57:47.060Z,10.40
2023-04-17T21:00:14.140Z,10.30
2023-04-17T21:02:40.994Z,10.30
2023-04-17T21:05:08.476Z,10.40
2023-04-17T21:07:35.578Z,10.20
2023-04-17T21:10:02.424Z,10.30
2023-04-17T21:12:29.541Z,10.30
2023-04-17T21:14:56.288Z,10.20
2023-04-17T21:17:23.360Z,10.20
2023-04-17T21:19:50.149Z,10.10
2023-04-17T21:22:16.829Z,10.00
2023-04-17T21:24:43.550Z,9.90
2023-04-17T21:27:10.384Z,9.90
2023-04-17T21:29:37.542Z,9.80
2023-04-17T21:32:04.434Z,9.80
2023-04-17T21:34:31.309Z,9.80
2023-04-17T21:36:59.641Z,9.80
2023-04-17T21:39:26.551Z,9.90
2023-04-17T21:41:53.266Z,9.90
2023-04-17T21:44:19.966Z,9.90
2023-04-17T21:46:46.696Z,9.90
2023-04-17T21:49:13.458Z,9.90
2023-04-17T21:51:40.812Z,9.90
2023-04-17T21:54:08.453Z,9.80
2023-04-17T21:56:35.400Z,9.80
2023-04-17T21:59:02.238Z,9.90
2023-04-17T22:01:28.986Z,9.90
2023-04-17T22:03:55.749Z,9.70
2023-04-17T22:06:22.652Z,9.80
2023-04-17T22:08:49.379Z,9.70
2023-04-17T22:11:16.097Z,9.70
2023-04-17T22:13:42.908Z,9.80
2023-04-17T22:16:09.695Z,9.90
2023-04-17T22:18:36.485Z,10.10
2023-04-17T22:21:03.651Z,9.90
2023-04-17T22:23:30.739Z,9.90
2023-04-17T22:25:57.527Z,9.90
2023-04-17T22:28:25.683Z,9.90
2023-04-17T22:30:52.656Z,9.90
2023-04-17T22:33:19.425Z,9.80
2023-04-17T22:35:46.094Z,9.80
2023-04-17T22:38:12.852Z,9.80
2023-04-17T22:40:40.507Z,9.70
2023-04-17T22:43:07.192Z,9.70
2023-04-17T22:45:34.005Z,9.70
2023-04-17T22:48:01.173Z,9.60
2023-04-17T22:50:30.435Z,9.60
2023-04-17T22:52:57.535Z,9.60
2023-04-17T22:55:24.718Z,9.60
2023-04-17T22:57:51.710Z,9.50
2023-04-17T23:00:20.049Z,9.50
2023-04-17T23:02:47.370Z,9.50
2023-04-17T23:05:14.413Z,9.50
2023-04-17T23:07:41.263Z,9.50
2023-04-17T23:10:08.320Z,9.60
2023-04-17T23:12:35.032Z,9.70
2023-04-17T23:15:02.305Z,9.70
2023-04-17T23:17:29.135Z,9.60
2023-04-17T23:19:56.892Z,9.50
2023-04-17T23:22:23.682Z,9.60
2023-04-17T23:24:50.697Z,9.50
2023-04-17T23:27:17.676Z,9.50
2023-04-17T23:29:44.312Z,9.50
2023-04-17T23:32:11.267Z,9.50
2023-04-17T23:34:38.026Z,9.50
2023-04-17T23:37:04.728Z,9.50
2023-04-17T23:39:31.475Z,9.70
2023-04-17T23:42:00.487Z,9.70
2023-04-17T23:44:27.230Z,9.70
2023-04-17T23:46:53.978Z,9.70
2023-04-17T23:49:20.863Z,9.70
2023-04-17T23:51:47.537Z,9.70
2023-04-17T23:54:15.296Z,9.70
2023-04-17T23:56:43.419Z,9.60
2023-04-17T23:59:10.220Z,9.60
